createdAt,value
2018-09-21T00:02:12.284Z,11.80
2018-09-21T00:04:40.381Z,11.80
2018-09-21T00:07:08.741Z,11.80
2018-09-21T00:09:37.161Z,11.70
2018-09-21T00:12:05.241Z,11.70
2018-09-21T00:14:33.450Z,11.70
2018-09-21T00:17:02.130Z,11.70
2018-09-21T00:19:30.386Z,11.80
2018-09-21T00:21:59.379Z,11.70
2018-09-21T00:24:27.615Z,11.80
2018-09-21T00:26:55.783Z,11.80
2018-09-21T00:29:23.897Z,11.80
2018-09-21T00:31:52.028Z,11.80
2018-09-21T00:34:21.278Z,11.80
2018-09-21T00:36:49.816Z,11.80
2018-09-21T00:39:17.998Z,11.80
2018-09-21T00:41:46.103Z,11.80
2018-09-21T00:44:14.258Z,11.80
2018-09-21T00:46:42.757Z,11.70
2018-09-21T00:49:10.876Z,11.70
2018-09-21T00:51:39.093Z,11.70
2018-09-21T00:54:07.513Z,11.70
2018-09-21T00:56:35.613Z,11.80
2018-09-21T00:59:03.808Z,11.80
2018-09-21T01:01:32.045Z,11.80
2018-09-21T01:04:00.181Z,11.70
2018-09-21T01:06:28.466Z,11.80
2018-09-21T01:08:56.632Z,11.80
2018-09-21T01:11:24.849Z,11.80
2018-09-21T01:13:53.104Z,11.80
2018-09-21T01:16:21.288Z,11.80
2018-09-21T01:18:49.375Z,11.80
2018-09-21T01:21:17.730Z,11.90
2018-09-21T01:23:46.020Z,11.80
2018-09-21T01:26:14.269Z,11.80
2018-09-21T01:28:42.601Z,11.80
2018-09-21T01:31:10.891Z,11.80
2018-09-21T01:33:39.713Z,11.90
2018-09-21T01:36:08.017Z,11.80
2018-09-21T01:38:36.113Z,11.90
2018-09-21T01:41:04.258Z,11.90
2018-09-21T01:43:33.263Z,11.90
2018-09-21T01:46:01.381Z,12.00
2018-09-21T01:48:30.321Z,12.00
2018-09-21T01:50:58.600Z,11.90
2018-09-21T01:53:26.859Z,11.90
2018-09-21T01:55:55.007Z,11.90
2018-09-21T01:58:24.136Z,11.90
2018-09-21T02:00:52.215Z,11.90
2018-09-21T02:03:20.333Z,11.90
2018-09-21T02:05:48.481Z,12.00
2018-09-21T02:08:16.577Z,12.00
2018-09-21T02:10:44.697Z,12.00
2018-09-21T02:13:12.913Z,12.00
2018-09-21T02:15:41.213Z,12.00
2018-09-21T02:18:09.389Z,12.00
2018-09-21T02:20:37.637Z,12.00
2018-09-21T02:23:05.917Z,12.00
2018-09-21T02:25:34.169Z,12.00
2018-09-21T02:28:02.289Z,12.00
2018-09-21T02:30:30.583Z,12.10
2018-09-21T02:32:59.105Z,12.00
2018-09-21T02:35:27.227Z,12.10
2018-09-21T02:37:55.426Z,12.10
2018-09-21T02:40:23.663Z,12.10
2018-09-21T02:42:52.060Z,12.00
2018-09-21T02:45:20.141Z,12.00
2018-09-21T02:47:48.394Z,12.00
2018-09-21T02:50:16.591Z,12.00
2018-09-21T02:52:44.805Z,12.10
2018-09-21T02:55:12.893Z,12.20
2018-09-21T02:57:41.073Z,12.20
2018-09-21T03:00:09.573Z,12.10
2018-09-21T03:02:37.786Z,12.20
2018-09-21T03:05:06.129Z,12.20
2018-09-21T03:07:34.313Z,12.20
2018-09-21T03:10:02.634Z,12.20
2018-09-21T03:12:31.021Z,12.20
2018-09-21T03:14:59.266Z,12.20
2018-09-21T03:17:27.382Z,12.20
2018-09-21T03:19:55.665Z,12.20
2018-09-21T03:22:23.853Z,12.20
2018-09-21T03:24:51.958Z,12.20
2018-09-21T03:27:20.090Z,12.20
2018-09-21T03:29:49.059Z,12.20
2018-09-21T03:32:17.352Z,12.20
2018-09-21T03:34:45.490Z,12.20
2018-09-21T03:37:13.648Z,12.10
2018-09-21T03:39:41.769Z,12.20
2018-09-21T03:42:09.911Z,12.20
2018-09-21T03:44:38.185Z,12.10
2018-09-21T03:47:06.283Z,12.20
2018-09-21T03:49:34.739Z,12.20
2018-09-21T03:52:02.921Z,12.20
2018-09-21T03:54:34.098Z,12.10
2018-09-21T03:57:02.405Z,12.10
2018-09-21T03:59:30.533Z,12.10
2018-09-21T04:01:58.718Z,12.10
2018-09-21T04:04:26.827Z,12.00
2018-09-21T04:06:55.013Z,12.00
2018-09-21T04:09:23.109Z,12.00
2018-09-21T04:11:51.305Z,11.90
2018-09-21T04:14:19.437Z,11.90
2018-09-21T04:16:47.579Z,11.80
2018-09-21T04:19:15.709Z,11.80
2018-09-21T04:21:43.874Z,11.70
2018-09-21T04:24:12.138Z,11.70
2018-09-21T04:26:40.333Z,11.70
2018-09-21T04:29:08.519Z,11.60
2018-09-21T04:31:36.669Z,11.60
2018-09-21T04:34:04.989Z,11.60
2018-09-21T04:36:33.153Z,11.60
2018-09-21T04:39:01.489Z,11.60
2018-09-21T04:41:29.702Z,11.40
2018-09-21T04:43:57.838Z,11.40
2018-09-21T04:46:26.206Z,11.40
2018-09-21T04:48:54.482Z,11.40
2018-09-21T04:51:22.661Z,11.30
2018-09-21T04:53:50.841Z,11.30
2018-09-21T04:56:18.997Z,11.30
2018-09-21T04:58:47.229Z,11.40
2018-09-21T05:01:15.481Z,11.50
2018-09-21T05:03:43.617Z,11.30
2018-09-21T05:06:11.790Z,11.30
2018-09-21T05:08:39.909Z,11.30
2018-09-21T05:11:08.665Z,11.30
2018-09-21T05:13:36.960Z,11.40
2018-09-21T05:16:05.221Z,11.40
2018-09-21T05:18:34.186Z,11.40
2018-09-21T05:21:02.900Z,11.40
2018-09-21T05:23:31.141Z,11.40
2018-09-21T05:25:59.498Z,11.40
2018-09-21T05:28:27.589Z,11.30
2018-09-21T05:30:55.707Z,11.30
2018-09-21T05:33:23.936Z,11.40
2018-09-21T05:35:52.033Z,11.40
2018-09-21T05:38:20.359Z,11.40
2018-09-21T05:40:49.159Z,11.40
2018-09-21T05:43:17.294Z,11.30
2018-09-21T05:45:45.389Z,11.30
2018-09-21T05:48:13.521Z,11.40
2018-09-21T05:50:41.719Z,11.40
2018-09-21T05:53:10.175Z,11.40
2018-09-21T05:55:39.187Z,11.30
2018-09-21T05:58:07.326Z,11.30
2018-09-21T06:00:35.630Z,11.30
2018-09-21T06:03:03.770Z,11.40
2018-09-21T06:05:31.819Z,11.30
2018-09-21T06:07:59.981Z,11.30
2018-09-21T06:10:28.192Z,11.30
2018-09-21T06:12:56.374Z,11.40
2018-09-21T06:15:24.671Z,11.40
2018-09-21T06:17:52.813Z,11.50
2018-09-21T06:20:21.095Z,11.50
2018-09-21T06:22:49.252Z,11.50
2018-09-21T06:25:18.077Z,11.60
2018-09-21T06:27:46.273Z,11.60
2018-09-21T06:30:14.354Z,11.60
2018-09-21T06:32:42.495Z,11.60
2018-09-21T06:35:10.571Z,11.70
2018-09-21T06:37:38.719Z,11.80
2018-09-21T06:40:06.987Z,11.90
2018-09-21T06:42:35.215Z,12.00
2018-09-21T06:45:03.337Z,12.00
2018-09-21T06:47:31.488Z,12.10
2018-09-21T06:49:59.700Z,12.20
2018-09-21T06:52:27.825Z,12.30
2018-09-21T06:54:56.197Z,12.40
2018-09-21T06:57:24.624Z,12.50
2018-09-21T06:59:52.710Z,12.60
2018-09-21T07:02:20.857Z,12.60
2018-09-21T07:04:49.033Z,12.70
2018-09-21T07:07:17.183Z,12.70
2018-09-21T07:09:45.530Z,12.80
2018-09-21T07:12:13.862Z,12.90
2018-09-21T07:14:43.993Z,13.00
2018-09-21T07:17:12.326Z,13.10
2018-09-21T07:19:40.591Z,13.20
2018-09-21T07:22:08.827Z,13.30
2018-09-21T07:24:36.950Z,13.30
2018-09-21T07:27:05.180Z,13.40
2018-09-21T07:29:33.558Z,13.50
2018-09-21T07:32:01.709Z,13.50
2018-09-21T07:34:29.888Z,13.60
2018-09-21T07:36:58.393Z,13.70
2018-09-21T07:39:26.572Z,13.80
2018-09-21T07:41:54.731Z,13.80
2018-09-21T07:44:23.012Z,13.90
2018-09-21T07:46:51.831Z,13.90
2018-09-21T07:49:19.973Z,14.00
2018-09-21T07:51:48.216Z,14.00
2018-09-21T07:54:16.362Z,14.10
2018-09-21T07:56:44.659Z,14.20
2018-09-21T07:59:12.748Z,14.30
2018-09-21T08:01:41.833Z,14.40
2018-09-21T08:04:10.114Z,14.60
2018-09-21T08:06:38.521Z,14.60
2018-09-21T08:09:07.201Z,14.70
2018-09-21T08:11:35.717Z,14.80
2018-09-21T08:14:04.111Z,15.00
2018-09-21T08:16:32.267Z,15.00
2018-09-21T08:19:00.573Z,15.00
2018-09-21T08:21:28.748Z,15.10
2018-09-21T08:23:56.867Z,15.20
2018-09-21T08:26:24.993Z,15.20
2018-09-21T08:28:53.204Z,15.30
2018-09-21T08:31:21.541Z,15.40
2018-09-21T08:33:49.762Z,15.40
2018-09-21T08:36:18.126Z,15.50
2018-09-21T08:38:46.366Z,15.60
2018-09-21T08:41:14.747Z,15.70
2018-09-21T08:43:42.898Z,15.80
2018-09-21T08:46:11.262Z,15.90
2018-09-21T08:48:39.381Z,16.00
2018-09-21T08:51:07.614Z,16.10
2018-09-21T08:53:35.925Z,16.20
2018-09-21T08:56:04.166Z,16.30
2018-09-21T08:58:32.355Z,16.30
2018-09-21T09:01:01.446Z,16.40
2018-09-21T09:03:29.792Z,16.50
2018-09-21T09:05:58.139Z,16.60
2018-09-21T09:08:26.482Z,16.70
2018-09-21T09:10:55.113Z,16.80
2018-09-21T09:13:23.398Z,16.90
2018-09-21T09:15:52.061Z,16.90
2018-09-21T09:18:20.247Z,17.00
2018-09-21T09:20:48.589Z,17.10
2018-09-21T09:23:17.160Z,17.10
2018-09-21T09:25:45.179Z,17.20
2018-09-21T09:28:13.421Z,17.20
2018-09-21T09:30:41.661Z,17.30
2018-09-21T09:33:10.092Z,17.30
2018-09-21T09:35:38.292Z,17.40
2018-09-21T09:38:07.405Z,17.40
2018-09-21T09:40:35.593Z,17.50
2018-09-21T09:43:03.832Z,17.50
2018-09-21T09:45:32.149Z,17.50
2018-09-21T09:48:00.493Z,17.50
2018-09-21T09:50:28.668Z,17.50
2018-09-21T09:52:56.826Z,17.60
2018-09-21T09:55:25.237Z,17.60
2018-09-21T09:57:53.544Z,17.60
2018-09-21T10:00:26.881Z,17.70
2018-09-21T10:02:55.197Z,17.70
2018-09-21T10:05:23.362Z,17.80
2018-09-21T10:07:51.518Z,17.80
2018-09-21T10:10:19.893Z,17.80
2018-09-21T10:12:48.028Z,17.90
2018-09-21T10:15:16.456Z,17.90
2018-09-21T10:17:44.759Z,18.00
2018-09-21T10:20:12.945Z,18.00
2018-09-21T10:22:41.185Z,18.10
2018-09-21T10:25:09.317Z,18.10
2018-09-21T10:27:37.478Z,18.20
2018-09-21T10:30:05.653Z,18.30
2018-09-21T10:32:34.068Z,18.40
2018-09-21T10:35:03.222Z,18.50
2018-09-21T10:37:31.405Z,18.60
2018-09-21T10:39:59.724Z,18.80
2018-09-21T10:42:28.485Z,18.80
2018-09-21T10:44:56.690Z,18.90
2018-09-21T10:47:24.956Z,19.00
2018-09-21T10:49:53.088Z,19.10
2018-09-21T10:52:21.225Z,19.20
2018-09-21T10:54:49.511Z,19.20
2018-09-21T10:57:17.594Z,19.20
2018-09-21T10:59:46.042Z,19.20
2018-09-21T11:02:14.133Z,19.20
2018-09-21T11:04:42.231Z,19.10
2018-09-21T11:07:10.399Z,19.20
2018-09-21T11:09:39.655Z,19.20
2018-09-21T11:12:07.803Z,19.20
2018-09-21T11:14:36.052Z,19.30
2018-09-21T11:17:04.157Z,19.40
2018-09-21T11:19:32.371Z,19.30
2018-09-21T11:22:00.684Z,19.30
2018-09-21T11:24:29.401Z,19.30
2018-09-21T11:26:57.565Z,19.40
2018-09-21T11:29:25.855Z,18.70
2018-09-21T11:31:54.094Z,18.90
2018-09-21T11:34:22.374Z,18.90
2018-09-21T11:36:50.526Z,18.80
2018-09-21T11:39:18.916Z,18.70
2018-09-21T11:41:47.025Z,18.80
2018-09-21T11:44:15.225Z,18.90
2018-09-21T11:46:43.468Z,18.90
2018-09-21T11:49:12.507Z,19.00
2018-09-21T11:51:40.566Z,18.80
2018-09-21T11:54:08.923Z,18.20
2018-09-21T11:56:37.150Z,18.10
2018-09-21T11:59:05.336Z,18.60
2018-09-21T12:01:33.665Z,18.90
2018-09-21T12:04:01.864Z,19.20
2018-09-21T12:06:30.162Z,19.20
2018-09-21T12:08:58.425Z,18.80
2018-09-21T12:11:26.504Z,18.80
2018-09-21T12:13:54.690Z,18.70
2018-09-21T12:16:22.953Z,18.60
2018-09-21T12:18:51.207Z,18.60
2018-09-21T12:21:19.457Z,18.30
2018-09-21T12:23:47.565Z,18.30
2018-09-21T12:26:15.718Z,18.40
2018-09-21T12:28:43.995Z,18.30
2018-09-21T12:31:12.209Z,18.10
2018-09-21T12:33:40.283Z,18.00
2018-09-21T12:36:08.609Z,18.20
2018-09-21T12:38:37.018Z,18.00
2018-09-21T12:41:05.290Z,18.00
2018-09-21T12:43:33.421Z,18.00
2018-09-21T12:46:02.222Z,17.80
2018-09-21T12:48:30.429Z,17.70
2018-09-21T12:50:58.606Z,17.70
2018-09-21T12:53:26.743Z,17.90
2018-09-21T12:55:55.061Z,18.10
2018-09-21T12:58:23.273Z,18.20
2018-09-21T13:00:52.489Z,18.20
2018-09-21T13:03:21.965Z,18.10
2018-09-21T13:05:54.804Z,17.90
2018-09-21T13:08:23.993Z,17.80
2018-09-21T13:10:52.302Z,17.60
2018-09-21T13:13:20.732Z,17.40
2018-09-21T13:15:49.075Z,17.30
2018-09-21T13:18:17.331Z,17.30
2018-09-21T13:20:45.468Z,17.40
2018-09-21T13:23:14.001Z,17.60
2018-09-21T13:25:42.240Z,17.40
2018-09-21T13:28:10.626Z,17.50
2018-09-21T13:30:39.304Z,17.50
2018-09-21T13:33:07.559Z,17.40
2018-09-21T13:35:35.661Z,17.40
2018-09-21T13:38:03.968Z,17.60
2018-09-21T13:40:32.097Z,17.30
2018-09-21T13:43:00.301Z,17.30
2018-09-21T13:45:28.426Z,17.30
2018-09-21T13:47:56.684Z,17.10
2018-09-21T13:50:24.850Z,16.90
2018-09-21T13:52:53.243Z,17.00
2018-09-21T13:55:21.567Z,17.10
2018-09-21T13:57:49.777Z,17.20
2018-09-21T14:00:17.948Z,17.10
2018-09-21T14:02:46.304Z,17.10
2018-09-21T14:05:14.361Z,17.50
2018-09-21T14:07:42.950Z,17.40
2018-09-21T14:10:11.439Z,17.40
2018-09-21T14:12:40.196Z,17.60
2018-09-21T14:15:08.289Z,17.90
2018-09-21T14:17:36.443Z,18.00
2018-09-21T14:20:04.733Z,17.90
2018-09-21T14:22:32.919Z,18.00
2018-09-21T14:25:01.130Z,17.90
2018-09-21T14:27:29.365Z,17.80
2018-09-21T14:29:57.757Z,17.80
2018-09-21T14:32:26.075Z,17.80
2018-09-21T14:34:54.326Z,17.60
2018-09-21T14:37:22.557Z,17.40
2018-09-21T14:39:50.850Z,17.50
2018-09-21T14:42:19.061Z,17.50
2018-09-21T14:44:48.091Z,17.20
2018-09-21T14:47:17.259Z,17.40
2018-09-21T14:49:45.395Z,17.50
2018-09-21T14:52:14.398Z,17.40
2018-09-21T14:54:42.530Z,17.50
2018-09-21T14:57:10.974Z,17.80
2018-09-21T14:59:39.185Z,18.20
2018-09-21T15:02:07.797Z,18.30
2018-09-21T15:04:35.896Z,18.40
2018-09-21T15:07:04.024Z,18.50
2018-09-21T15:09:32.190Z,18.60
2018-09-21T15:12:00.449Z,18.70
2018-09-21T15:14:28.565Z,18.70
2018-09-21T15:16:56.725Z,18.70
2018-09-21T15:19:24.985Z,18.70
2018-09-21T15:21:53.261Z,18.60
2018-09-21T15:24:21.517Z,18.60
2018-09-21T15:26:49.723Z,18.50
2018-09-21T15:29:17.786Z,18.50
2018-09-21T15:31:46.024Z,18.40
2018-09-21T15:34:14.134Z,18.30
2018-09-21T15:36:42.207Z,18.30
2018-09-21T15:39:11.157Z,18.20
2018-09-21T15:41:39.531Z,18.20
2018-09-21T15:44:07.720Z,18.20
2018-09-21T15:46:37.168Z,18.10
2018-09-21T15:49:05.649Z,18.20
2018-09-21T15:51:34.338Z,18.10
2018-09-21T15:54:02.549Z,18.20
2018-09-21T15:56:31.511Z,18.10
2018-09-21T15:58:59.889Z,18.10
2018-09-21T16:01:28.049Z,18.10
2018-09-21T16:03:56.262Z,18.00
2018-09-21T16:06:24.411Z,18.00
2018-09-21T16:08:52.545Z,18.00
2018-09-21T16:11:20.795Z,17.90
2018-09-21T16:13:49.023Z,17.90
2018-09-21T16:16:17.431Z,17.90
2018-09-21T16:18:47.377Z,17.90
2018-09-21T16:21:15.584Z,17.90
2018-09-21T16:23:43.781Z,17.80
2018-09-21T16:26:12.030Z,17.80
2018-09-21T16:28:40.102Z,17.80
2018-09-21T16:31:08.374Z,17.80
2018-09-21T16:33:36.589Z,17.80
2018-09-21T16:36:04.816Z,17.80
2018-09-21T16:38:33.521Z,17.70
2018-09-21T16:41:01.846Z,17.80
2018-09-21T16:43:30.109Z,17.80
2018-09-21T16:45:58.218Z,17.80
2018-09-21T16:48:26.365Z,17.70
2018-09-21T16:50:54.799Z,17.80
2018-09-21T16:53:23.962Z,17.70
2018-09-21T16:55:52.365Z,17.70
2018-09-21T16:58:20.798Z,17.70
2018-09-21T17:00:49.356Z,17.60
2018-09-21T17:03:17.665Z,17.70
2018-09-21T17:05:45.933Z,17.70
2018-09-21T17:08:14.248Z,17.70
2018-09-21T17:10:42.669Z,17.70
2018-09-21T17:13:10.862Z,17.70
2018-09-21T17:15:39.041Z,17.70
2018-09-21T17:18:07.347Z,17.70
2018-09-21T17:20:35.553Z,17.70
2018-09-21T17:23:03.713Z,17.70
2018-09-21T17:25:31.997Z,17.70
2018-09-21T17:28:00.681Z,18.00
2018-09-21T17:30:28.790Z,18.20
2018-09-21T17:32:57.630Z,18.20
2018-09-21T17:35:25.814Z,18.30
2018-09-21T17:37:54.262Z,18.20
2018-09-21T17:40:22.514Z,18.20
2018-09-21T17:42:51.594Z,18.20
2018-09-21T17:45:19.943Z,18.20
2018-09-21T17:47:48.998Z,18.20
2018-09-21T17:50:17.807Z,18.10
2018-09-21T17:52:46.848Z,18.10
2018-09-21T17:55:15.198Z,18.00
2018-09-21T17:57:43.752Z,18.00
2018-09-21T18:00:11.919Z,18.00
2018-09-21T18:02:40.073Z,18.10
2018-09-21T18:05:08.343Z,18.00
2018-09-21T18:07:36.581Z,18.10
2018-09-21T18:10:05.009Z,18.10
2018-09-21T18:12:33.129Z,18.00
2018-09-21T18:15:01.302Z,18.00
2018-09-21T18:17:29.892Z,18.00
2018-09-21T18:19:58.981Z,17.90
2018-09-21T18:22:27.136Z,17.90
2018-09-21T18:24:55.313Z,17.80
2018-09-21T18:27:23.810Z,17.70
2018-09-21T18:29:51.929Z,17.70
2018-09-21T18:32:21.265Z,17.70
2018-09-21T18:34:49.417Z,17.60
2018-09-21T18:37:18.580Z,17.60
2018-09-21T18:39:47.002Z,17.60
2018-09-21T18:42:15.286Z,17.60
2018-09-21T18:44:43.604Z,17.60
2018-09-21T18:47:11.782Z,17.60
2018-09-21T18:49:39.929Z,17.50
2018-09-21T18:52:08.170Z,17.50
2018-09-21T18:54:36.395Z,17.50
2018-09-21T18:57:04.711Z,17.30
2018-09-21T18:59:32.868Z,17.20
2018-09-21T19:02:01.193Z,17.00
2018-09-21T19:04:29.320Z,16.80
2018-09-21T19:06:57.531Z,16.70
2018-09-21T19:09:25.769Z,16.60
2018-09-21T19:11:53.860Z,16.50
2018-09-21T19:14:21.993Z,16.50
2018-09-21T19:16:50.967Z,16.30
2018-09-21T19:19:21.369Z,16.30
2018-09-21T19:21:49.487Z,16.20
2018-09-21T19:24:18.539Z,16.10
2018-09-21T19:26:46.681Z,16.10
2018-09-21T19:29:14.865Z,15.90
2018-09-21T19:31:42.937Z,15.90
2018-09-21T19:34:11.149Z,15.90
2018-09-21T19:36:39.477Z,15.80
2018-09-21T19:39:08.789Z,15.70
2018-09-21T19:41:37.315Z,15.60
2018-09-21T19:44:05.625Z,15.50
2018-09-21T19:46:33.993Z,15.30
2018-09-21T19:49:02.215Z,15.40
2018-09-21T19:51:30.550Z,15.20
2018-09-21T19:53:59.515Z,15.10
2018-09-21T19:56:27.787Z,15.20
2018-09-21T19:58:58.039Z,15.20
2018-09-21T20:01:27.445Z,15.00
2018-09-21T20:03:55.695Z,14.80
2018-09-21T20:06:23.768Z,15.00
2018-09-21T20:08:53.297Z,14.90
2018-09-21T20:11:22.584Z,14.90
2018-09-21T20:13:50.768Z,15.00
2018-09-21T20:16:19.028Z,14.80
2018-09-21T20:18:48.784Z,14.80
2018-09-21T20:21:16.944Z,14.70
2018-09-21T20:23:46.225Z,14.60
2018-09-21T20:26:14.512Z,14.60
2018-09-21T20:28:43.643Z,14.40
2018-09-21T20:31:17.172Z,14.40
2018-09-21T20:33:45.484Z,14.40
2018-09-21T20:36:14.818Z,14.50
2018-09-21T20:38:43.837Z,14.50
2018-09-21T20:41:12.171Z,14.50
2018-09-21T20:43:42.347Z,14.40
2018-09-21T20:46:10.542Z,14.10
2018-09-21T20:48:38.695Z,14.20
2018-09-21T20:51:06.849Z,14.30
2018-09-21T20:53:35.038Z,14.20
2018-09-21T20:56:03.327Z,14.10
2018-09-21T20:58:31.683Z,14.00
2018-09-21T21:00:59.852Z,14.00
2018-09-21T21:03:28.269Z,13.90
2018-09-21T21:05:57.082Z,13.90
2018-09-21T21:08:25.249Z,13.90
2018-09-21T21:10:56.254Z,13.90
2018-09-21T21:13:25.055Z,13.80
2018-09-21T21:15:53.582Z,13.90
2018-09-21T21:18:21.830Z,13.90
2018-09-21T21:20:50.238Z,13.80
2018-09-21T21:23:19.220Z,13.70
2018-09-21T21:25:47.931Z,13.70
2018-09-21T21:28:16.531Z,13.80
2018-09-21T21:30:45.302Z,13.60
2018-09-21T21:33:13.514Z,13.50
2018-09-21T21:35:41.958Z,13.50
2018-09-21T21:38:10.294Z,13.70
2018-09-21T21:40:38.506Z,13.80
2018-09-21T21:43:06.674Z,13.70
2018-09-21T21:45:35.033Z,13.70
2018-09-21T21:48:03.154Z,13.70
2018-09-21T21:50:31.306Z,13.70
2018-09-21T21:53:02.189Z,13.70
2018-09-21T21:55:31.401Z,13.60
2018-09-21T21:57:59.734Z,13.60
2018-09-21T22:00:34.047Z,13.70
2018-09-21T22:03:02.381Z,13.60
2018-09-21T22:05:30.653Z,13.50
2018-09-21T22:07:59.719Z,13.40
2018-09-21T22:10:27.845Z,13.60
2018-09-21T22:13:01.354Z,13.50
2018-09-21T22:15:29.517Z,13.60
2018-09-21T22:17:57.601Z,13.50
2018-09-21T22:20:25.874Z,13.30
2018-09-21T22:22:54.871Z,13.40
2018-09-21T22:25:23.010Z,13.30
2018-09-21T22:27:51.208Z,13.30
2018-09-21T22:30:19.342Z,13.20
2018-09-21T22:32:48.148Z,13.20
2018-09-21T22:35:16.311Z,13.10
2018-09-21T22:37:44.511Z,13.10
2018-09-21T22:40:13.230Z,13.10
2018-09-21T22:42:41.445Z,13.00
2018-09-21T22:45:09.782Z,13.10
2018-09-21T22:47:37.980Z,13.00
2018-09-21T22:50:06.317Z,13.00
2018-09-21T22:52:34.717Z,12.90
2018-09-21T22:55:03.082Z,12.90
2018-09-21T22:57:31.427Z,13.00
2018-09-21T22:59:59.874Z,13.00
2018-09-21T23:02:28.297Z,12.80
2018-09-21T23:04:57.043Z,12.80
2018-09-21T23:07:25.238Z,12.80
2018-09-21T23:09:53.429Z,13.00
2018-09-21T23:12:21.661Z,12.90
2018-09-21T23:14:49.864Z,12.80
2018-09-21T23:17:18.201Z,12.70
2018-09-21T23:19:47.088Z,12.70
2018-09-21T23:22:15.876Z,12.60
2018-09-21T23:24:44.929Z,12.70
2018-09-21T23:27:13.127Z,12.80
2018-09-21T23:29:41.312Z,12.60
2018-09-21T23:32:09.665Z,12.60
2018-09-21T23:34:37.865Z,12.70
2018-09-21T23:37:05.969Z,12.60
2018-09-21T23:39:34.152Z,12.60
2018-09-21T23:42:02.373Z,12.60
2018-09-21T23:44:30.473Z,12.60
2018-09-21T23:46:58.713Z,12.50
2018-09-21T23:49:26.841Z,12.60
2018-09-21T23:51:55.036Z,12.60
2018-09-21T23:54:23.123Z,12.60
2018-09-21T23:56:52.220Z,12.60
2018-09-21T23:59:20.396Z,12.50
